createdAt,value
2018-07-26T00:01:58.832Z,98938.06
2018-07-26T00:04:33.460Z,98932.33
2018-07-26T00:07:08.448Z,98924.60
2018-07-26T00:09:43.137Z,98917.28
2018-07-26T00:12:17.852Z,98919.06
2018-07-26T00:14:52.464Z,98921.44
2018-07-26T00:17:27.340Z,98926.98
2018-07-26T00:20:01.994Z,98922.44
2018-07-26T00:22:36.852Z,98923.03
2018-07-26T00:25:11.343Z,98924.81
2018-07-26T00:27:45.924Z,98929.36
2018-07-26T00:30:20.637Z,98934.70
2018-07-26T00:32:55.544Z,98936.64
2018-07-26T00:35:30.068Z,98945.31
2018-07-26T00:38:04.768Z,98944.05
2018-07-26T00:40:39.248Z,98944.63
2018-07-26T00:43:13.777Z,98944.35
2018-07-26T00:45:48.288Z,98937.83
2018-07-26T00:48:23.204Z,98941.19
2018-07-26T00:50:57.666Z,98942.97
2018-07-26T00:53:32.195Z,98948.48
2018-07-26T00:56:06.993Z,98941.68
2018-07-26T00:58:41.652Z,98936.73
2018-07-26T01:01:16.335Z,98936.92
2018-07-26T01:03:50.780Z,98938.30
2018-07-26T01:06:25.252Z,98933.73
2018-07-26T01:08:59.624Z,98934.87
2018-07-26T01:11:34.024Z,98932.17
2018-07-26T01:14:19.098Z,98931.28
2018-07-26T01:16:53.569Z,98924.78
2018-07-26T01:19:28.272Z,98929.19
2018-07-26T01:22:02.744Z,98932.55
2018-07-26T01:24:37.448Z,98928.31
2018-07-26T01:27:12.071Z,98932.66
2018-07-26T01:29:59.937Z,98931.00
2018-07-26T01:32:34.365Z,98932.94
2018-07-26T01:35:27.848Z,98937.66
2018-07-26T01:38:05.738Z,98940.55
2018-07-26T01:40:39.967Z,98934.81
2018-07-26T01:43:24.559Z,98933.73
2018-07-26T01:45:58.969Z,98934.64
2018-07-26T01:48:46.461Z,98939.25
2018-07-26T01:54:19.877Z,98942.11
2018-07-26T01:56:54.255Z,98937.06
2018-07-26T01:59:28.695Z,98933.44
2018-07-26T02:02:03.115Z,98933.27
2018-07-26T02:04:37.495Z,98929.30
2018-07-26T02:07:11.876Z,98926.56
2018-07-26T02:09:46.251Z,98927.53
2018-07-26T02:12:21.255Z,98923.56
2018-07-26T02:14:55.672Z,98925.41
2018-07-26T02:17:29.948Z,98919.02
2018-07-26T02:20:04.548Z,98919.05
2018-07-26T02:22:38.955Z,98916.72
2018-07-26T02:25:18.567Z,98919.06
2018-07-26T02:27:58.519Z,98919.11
2018-07-26T02:30:32.912Z,98923.08
2018-07-26T02:33:07.483Z,98918.72
2018-07-26T02:35:41.847Z,98920.09
2018-07-26T02:38:16.172Z,98922.08
2018-07-26T02:40:50.800Z,98920.95
2018-07-26T02:43:25.103Z,98925.20
2018-07-26T02:46:04.888Z,98924.59
2018-07-26T02:48:39.502Z,98924.60
2018-07-26T02:51:13.887Z,98921.24
2018-07-26T02:53:48.314Z,98924.63
2018-07-26T02:56:22.792Z,98920.48
2018-07-26T02:58:57.071Z,98916.17
2018-07-26T03:01:31.407Z,98918.77
2018-07-26T03:04:06.052Z,98922.38
2018-07-26T03:06:40.424Z,98921.97
2018-07-26T03:09:14.724Z,98918.83
2018-07-26T03:11:49.141Z,98915.66
2018-07-26T03:14:23.599Z,98920.59
2018-07-26T03:16:58.040Z,98923.30
2018-07-26T03:19:32.465Z,98922.45
2018-07-26T03:22:07.184Z,98922.80
2018-07-26T03:24:41.753Z,98920.94
2018-07-26T03:27:16.229Z,98923.63
2018-07-26T03:29:50.653Z,98925.75
2018-07-26T03:32:25.293Z,98924.88
2018-07-26T03:34:59.896Z,98924.66
2018-07-26T03:37:34.589Z,98921.05
2018-07-26T03:40:09.189Z,98925.73
2018-07-26T03:42:43.825Z,98925.80
2018-07-26T03:45:18.332Z,98919.98
2018-07-26T03:47:52.957Z,98922.45
2018-07-26T03:50:27.310Z,98931.95
2018-07-26T03:53:01.997Z,98928.47
2018-07-26T03:55:36.484Z,98927.75
2018-07-26T03:58:21.451Z,98933.16
2018-07-26T04:00:56.112Z,98933.08
2018-07-26T04:03:30.734Z,98939.53
2018-07-26T04:06:05.312Z,98940.53
2018-07-26T04:08:39.956Z,98939.44
2018-07-26T04:11:14.547Z,98933.13
2018-07-26T04:13:49.193Z,98940.45
2018-07-26T04:16:23.928Z,98940.59
2018-07-26T04:18:58.500Z,98941.20
2018-07-26T04:21:32.940Z,98940.67
2018-07-26T04:24:07.565Z,98945.52
2018-07-26T04:26:42.165Z,98939.66
2018-07-26T04:29:16.840Z,98939.25
2018-07-26T04:31:51.325Z,98938.92
2018-07-26T04:34:25.948Z,98939.40
2018-07-26T04:37:00.659Z,98946.12
2018-07-26T04:39:35.292Z,98945.17
2018-07-26T04:42:09.821Z,98941.78
2018-07-26T04:44:44.213Z,98947.55
2018-07-26T04:47:18.721Z,98951.52
2018-07-26T04:49:53.441Z,98952.50
2018-07-26T04:52:28.043Z,98955.47
2018-07-26T04:55:03.071Z,98951.91
2018-07-26T04:57:37.690Z,98950.54
2018-07-26T05:00:12.375Z,98946.44
2018-07-26T05:02:47.128Z,98949.28
2018-07-26T05:05:21.654Z,98953.33
2018-07-26T05:07:56.275Z,98950.27
2018-07-26T05:10:30.749Z,98950.73
2018-07-26T05:13:06.357Z,98946.20
2018-07-26T05:15:41.097Z,98946.66
2018-07-26T05:18:15.855Z,98946.88
2018-07-26T05:20:50.295Z,98949.23
2018-07-26T05:23:24.956Z,98945.68
2018-07-26T05:25:59.420Z,98944.89
2018-07-26T05:28:33.860Z,98945.85
2018-07-26T05:31:08.437Z,98952.36
2018-07-26T05:33:42.916Z,98953.69
2018-07-26T05:36:17.503Z,98949.48
2018-07-26T05:38:58.497Z,98959.31
2018-07-26T05:41:51.668Z,98954.48
2018-07-26T05:44:26.128Z,98962.27
2018-07-26T05:47:00.522Z,98960.23
2018-07-26T05:49:35.100Z,98953.75
2018-07-26T05:52:09.589Z,98958.96
2018-07-26T05:54:44.045Z,98953.25
2018-07-26T05:57:18.580Z,98954.14
2018-07-26T05:59:53.057Z,98961.09
2018-07-26T06:02:27.545Z,98967.70
2018-07-26T06:05:02.001Z,98965.16
2018-07-26T06:07:36.911Z,98968.74
2018-07-26T06:10:11.540Z,98973.30
2018-07-26T06:12:46.096Z,98965.67
2018-07-26T06:15:20.700Z,98970.55
2018-07-26T06:17:55.187Z,98964.80
2018-07-26T06:20:29.669Z,98970.59
2018-07-26T06:23:04.205Z,98975.00
2018-07-26T06:25:38.735Z,98967.52
2018-07-26T06:28:13.358Z,98968.88
2018-07-26T06:30:47.777Z,98969.69
2018-07-26T06:33:22.413Z,98959.20
2018-07-26T06:35:56.989Z,98964.41
2018-07-26T06:38:31.507Z,98969.34
2018-07-26T06:41:06.093Z,98964.95
2018-07-26T06:43:40.677Z,98964.78
2018-07-26T06:46:15.220Z,98963.84
2018-07-26T06:48:49.588Z,98972.91
2018-07-26T06:51:24.063Z,98966.03
2018-07-26T06:53:58.724Z,98963.17
2018-07-26T06:56:33.461Z,98963.05
2018-07-26T06:59:07.960Z,98971.20
2018-07-26T07:01:42.336Z,98973.06
2018-07-26T07:04:16.726Z,98972.19
2018-07-26T07:06:51.126Z,98972.02
2018-07-26T07:09:25.720Z,98970.91
2018-07-26T07:12:00.182Z,98973.64
2018-07-26T07:14:34.685Z,98974.25
2018-07-26T07:17:09.107Z,98975.02
2018-07-26T07:19:43.744Z,98976.17
2018-07-26T07:22:18.478Z,98976.62
2018-07-26T07:24:53.136Z,98964.42
2018-07-26T07:27:27.687Z,98972.11
2018-07-26T07:30:02.107Z,98964.73
2018-07-26T07:32:36.600Z,98968.06
2018-07-26T07:35:11.346Z,98973.92
2018-07-26T07:37:46.069Z,98974.73
2018-07-26T07:40:20.689Z,98966.22
2018-07-26T07:42:55.409Z,98972.17
2018-07-26T07:45:30.005Z,98965.22
2018-07-26T07:48:04.590Z,98968.89
2018-07-26T07:50:39.228Z,98969.45
2018-07-26T07:53:13.869Z,98970.45
2018-07-26T07:55:48.620Z,98965.34
2018-07-26T07:58:23.223Z,98968.60
2018-07-26T08:00:57.990Z,98966.39
2018-07-26T08:03:32.604Z,98969.80
2018-07-26T08:06:07.000Z,98969.83
2018-07-26T08:08:41.717Z,98961.88
2018-07-26T08:11:16.424Z,98960.67
2018-07-26T08:13:50.776Z,98958.95
2018-07-26T08:16:25.448Z,98962.41
2018-07-26T08:18:59.924Z,98967.88
2018-07-26T08:21:34.456Z,98968.13
2018-07-26T08:24:08.832Z,98966.41
2018-07-26T08:26:43.233Z,98968.06
2018-07-26T08:29:17.597Z,98967.16
2018-07-26T08:31:51.993Z,98966.08
2018-07-26T08:34:26.388Z,98967.76
2018-07-26T08:37:00.854Z,98964.82
2018-07-26T08:39:36.863Z,98969.55
2018-07-26T08:42:11.137Z,98969.34
2018-07-26T08:44:45.588Z,98962.77
2018-07-26T08:47:20.081Z,98971.27
2018-07-26T08:52:58.954Z,98968.95
2018-07-26T08:55:45.780Z,98969.41
2018-07-26T09:01:20.845Z,98974.48
2018-07-26T09:03:56.576Z,98972.95
2018-07-26T09:06:33.116Z,98973.14
2018-07-26T09:09:09.992Z,98969.97
2018-07-26T09:11:54.021Z,98960.33
2018-07-26T09:14:28.447Z,98965.70
2018-07-26T09:17:02.800Z,98963.33
2018-07-26T09:19:37.415Z,98961.73
2018-07-26T09:22:12.528Z,98965.16
2018-07-26T09:24:46.925Z,98958.05
2018-07-26T09:27:21.349Z,98954.75
2018-07-26T09:29:56.144Z,98958.53
2018-07-26T09:32:30.688Z,98959.00
2018-07-26T09:35:10.120Z,98954.15
2018-07-26T09:37:45.204Z,98947.63
2018-07-26T09:40:19.720Z,98954.25
2018-07-26T09:48:52.770Z,98952.38
2018-07-26T09:51:27.643Z,98952.73
2018-07-26T09:54:08.129Z,98950.59
2018-07-26T09:56:50.863Z,98945.39
2018-07-26T09:59:25.447Z,98940.72
2018-07-26T10:02:18.427Z,98945.75
2018-07-26T10:04:53.019Z,98944.41
2018-07-26T10:07:28.842Z,98949.26
2018-07-26T10:10:07.033Z,98941.00
2018-07-26T10:12:43.351Z,98939.23
2018-07-26T10:15:18.497Z,98941.77
2018-07-26T10:17:58.681Z,98932.86
2018-07-26T10:20:36.444Z,98933.81
2018-07-26T10:23:22.900Z,98934.13
2018-07-26T10:25:57.548Z,98936.80
2018-07-26T10:28:32.024Z,98931.41
2018-07-26T10:31:07.496Z,98924.52
2018-07-26T10:33:50.952Z,98924.73
2018-07-26T10:36:31.489Z,98917.69
2018-07-26T10:39:08.147Z,98919.91
2018-07-26T10:41:42.480Z,98924.45
2018-07-26T10:44:16.980Z,98920.17
2018-07-26T10:46:51.596Z,98910.09
2018-07-26T10:49:26.111Z,98910.53
2018-07-26T10:52:00.882Z,98913.41
2018-07-26T10:54:35.379Z,98917.39
2018-07-26T10:57:09.914Z,98910.82
2018-07-26T10:59:44.432Z,98906.71
2018-07-26T11:02:20.869Z,98901.33
2018-07-26T11:05:09.515Z,98898.69
2018-07-26T11:07:44.501Z,98895.67
2018-07-26T11:10:19.072Z,98898.19
2018-07-26T11:12:54.287Z,98891.47
2018-07-26T11:15:31.981Z,98883.72
2018-07-26T11:18:06.725Z,98889.02
2018-07-26T11:20:45.876Z,98892.28
2018-07-26T11:23:20.633Z,98891.77
2018-07-26T11:25:55.073Z,98891.00
2018-07-26T11:28:29.592Z,98885.88
2018-07-26T11:31:17.831Z,98881.91
2018-07-26T11:33:52.312Z,98883.14
2018-07-26T11:36:26.663Z,98883.75
2018-07-26T11:39:00.933Z,98876.32
2018-07-26T11:41:35.342Z,98884.98
2018-07-26T11:44:09.807Z,98881.50
2018-07-26T11:46:45.157Z,98878.42
2018-07-26T11:49:19.695Z,98882.62
2018-07-26T11:51:54.135Z,98875.78
2018-07-26T11:54:28.443Z,98874.64
2018-07-26T11:57:02.838Z,98871.22
2018-07-26T11:59:37.207Z,98873.98
2018-07-26T12:02:13.479Z,98867.84
2018-07-26T12:04:52.188Z,98866.02
2018-07-26T12:07:26.662Z,98865.54
2018-07-26T12:10:01.067Z,98862.92
2018-07-26T12:12:35.412Z,98863.59
2018-07-26T12:15:10.135Z,98856.84
2018-07-26T12:17:44.642Z,98852.07
2018-07-26T12:20:18.959Z,98848.80
2018-07-26T12:22:53.369Z,98852.52
2018-07-26T12:25:27.623Z,98845.22
2018-07-26T12:28:02.072Z,98843.00
2018-07-26T12:30:38.376Z,98844.73
2018-07-26T12:33:12.976Z,98838.92
2018-07-26T12:36:05.953Z,98840.32
2018-07-26T12:38:40.301Z,98830.95
2018-07-26T12:41:20.333Z,98830.06
2018-07-26T12:44:18.899Z,98827.53
2018-07-26T12:46:53.249Z,98822.92
2018-07-26T12:49:27.802Z,98819.73
2018-07-26T12:52:02.098Z,98814.12
2018-07-26T12:54:38.236Z,98812.36
2018-07-26T12:57:13.224Z,98820.25
2018-07-26T12:59:47.956Z,98813.33
2018-07-26T13:02:22.509Z,98816.28
2018-07-26T13:04:57.337Z,98816.12
2018-07-26T13:07:31.600Z,98809.06
2018-07-26T13:10:06.175Z,98809.55
2018-07-26T13:12:40.518Z,98806.09
2018-07-26T13:15:14.940Z,98802.78
2018-07-26T13:17:49.259Z,98800.06
2018-07-26T13:20:23.503Z,98797.01
2018-07-26T13:22:57.763Z,98799.23
2018-07-26T13:25:32.176Z,98794.06
2018-07-26T13:28:06.597Z,98792.29
2018-07-26T13:30:40.865Z,98785.88
2018-07-26T13:33:15.404Z,98780.87
2018-07-26T13:35:50.051Z,98783.09
2018-07-26T13:38:24.275Z,98786.91
2018-07-26T13:41:09.208Z,98779.91
2018-07-26T13:43:49.928Z,98778.37
2018-07-26T13:46:24.377Z,98774.80
2018-07-26T13:52:04.751Z,98768.63
2018-07-26T13:54:44.340Z,98764.53
2018-07-26T13:57:21.067Z,98767.66
2018-07-26T13:59:55.494Z,98765.87
2018-07-26T14:02:29.835Z,98763.88
2018-07-26T14:05:04.469Z,98768.80
2018-07-26T14:07:38.812Z,98766.73
2018-07-26T14:10:13.248Z,98768.47
2018-07-26T14:12:47.471Z,98766.88
2018-07-26T14:15:21.944Z,98764.54
2018-07-26T14:17:56.279Z,98757.89
2018-07-26T14:20:30.712Z,98754.42
2018-07-26T14:23:05.045Z,98753.41
2018-07-26T14:25:39.504Z,98747.62
2018-07-26T14:28:13.776Z,98749.89
2018-07-26T14:30:48.472Z,98742.30
2018-07-26T14:33:22.844Z,98734.56
2018-07-26T14:35:57.376Z,98735.70
2018-07-26T14:38:31.758Z,98736.08
2018-07-26T14:41:06.183Z,98740.58
2018-07-26T14:43:40.737Z,98741.11
2018-07-26T14:46:15.038Z,98741.41
2018-07-26T14:48:49.371Z,98741.50
2018-07-26T14:51:23.804Z,98746.67
2018-07-26T14:53:58.291Z,98750.57
2018-07-26T14:56:32.621Z,98738.83
2018-07-26T14:59:06.983Z,98734.16
2018-07-26T15:01:41.407Z,98731.33
2018-07-26T15:04:15.814Z,98736.84
2018-07-26T15:06:50.191Z,98733.86
2018-07-26T15:09:24.599Z,98734.01
2018-07-26T15:11:59.103Z,98735.09
2018-07-26T15:14:33.596Z,98738.09
2018-07-26T15:17:08.051Z,98734.47
2018-07-26T15:19:42.473Z,98733.55
2018-07-26T15:22:16.695Z,98736.03
2018-07-26T15:24:51.142Z,98737.13
2018-07-26T15:27:25.502Z,98737.73
2018-07-26T15:29:59.943Z,98737.42
2018-07-26T15:32:34.334Z,98737.42
2018-07-26T15:35:08.786Z,98737.27
2018-07-26T15:37:43.240Z,98735.86
2018-07-26T15:40:17.987Z,98738.02
2018-07-26T15:42:52.468Z,98734.60
2018-07-26T15:45:26.891Z,98730.50
2018-07-26T15:48:01.316Z,98730.38
2018-07-26T15:50:36.187Z,98723.27
2018-07-26T15:53:10.591Z,98724.88
2018-07-26T15:55:44.924Z,98724.25
2018-07-26T15:58:19.311Z,98717.17
2018-07-26T16:00:53.597Z,98715.45
2018-07-26T16:03:28.241Z,98717.80
2018-07-26T16:06:02.599Z,98716.30
2018-07-26T16:08:36.933Z,98716.14
2018-07-26T16:11:11.455Z,98717.36
2018-07-26T16:13:49.407Z,98720.80
2018-07-26T16:16:23.848Z,98723.34
2018-07-26T16:19:04.004Z,98706.76
2018-07-26T16:21:38.711Z,98704.56
2018-07-26T16:24:13.020Z,98704.09
2018-07-26T16:26:47.407Z,98705.65
2018-07-26T16:29:21.863Z,98700.35
2018-07-26T16:31:56.313Z,98699.24
2018-07-26T16:34:30.692Z,98700.34
2018-07-26T16:37:05.100Z,98700.50
2018-07-26T16:39:39.743Z,98695.66
2018-07-26T16:42:14.134Z,98688.45
2018-07-26T16:44:48.520Z,98693.45
2018-07-26T16:47:22.945Z,98696.45
2018-07-26T16:49:57.582Z,98694.86
2018-07-26T16:52:31.971Z,98690.48
2018-07-26T16:55:06.622Z,98700.02
2018-07-26T16:57:41.177Z,98696.13
2018-07-26T17:00:15.545Z,98699.56
2018-07-26T17:02:49.996Z,98698.77
2018-07-26T17:05:24.368Z,98695.16
2018-07-26T17:07:58.779Z,98695.17
2018-07-26T17:10:36.915Z,98695.64
2018-07-26T17:13:11.069Z,98696.11
2018-07-26T17:15:47.393Z,98704.71
2018-07-26T17:18:21.678Z,98706.59
2018-07-26T17:20:57.170Z,98715.36
2018-07-26T17:26:30.976Z,98716.52
2018-07-26T17:29:05.454Z,98712.08
2018-07-26T17:31:39.755Z,98718.48
2018-07-26T17:34:14.215Z,98712.44
2018-07-26T17:37:00.696Z,98720.23
2018-07-26T17:39:38.569Z,98723.94
2018-07-26T17:42:31.784Z,98733.09
2018-07-26T17:45:08.199Z,98721.97
2018-07-26T17:47:42.475Z,98723.36
2018-07-26T17:50:16.963Z,98735.32
2018-07-26T17:52:51.252Z,98722.48
2018-07-26T17:55:25.555Z,98715.17
2018-07-26T17:57:59.992Z,98713.34
2018-07-26T18:00:34.507Z,98714.55
2018-07-26T18:03:08.947Z,98707.08
2018-07-26T18:05:43.203Z,98705.09
2018-07-26T18:08:17.859Z,98706.46
2018-07-26T18:10:52.540Z,98707.66
2018-07-26T18:13:26.873Z,98707.99
2018-07-26T18:16:01.335Z,98705.53
2018-07-26T18:18:35.692Z,98714.19
2018-07-26T18:21:10.011Z,98706.39
2018-07-26T18:23:44.408Z,98712.37
2018-07-26T18:26:18.825Z,98714.14
2018-07-26T18:28:53.456Z,98717.44
2018-07-26T18:31:27.952Z,98710.93
2018-07-26T18:34:02.317Z,98715.50
2018-07-26T18:36:36.736Z,98717.97
2018-07-26T18:39:12.807Z,98717.74
2018-07-26T18:41:47.276Z,98721.00
2018-07-26T18:44:21.668Z,98722.44
2018-07-26T18:46:56.040Z,98730.84
2018-07-26T18:49:30.579Z,98733.05
2018-07-26T18:52:05.083Z,98734.05
2018-07-26T18:54:39.480Z,98747.62
2018-07-26T18:57:13.943Z,98744.76
2018-07-26T18:59:48.398Z,98751.86
2018-07-26T19:02:22.696Z,98755.06
2018-07-26T19:04:57.037Z,98760.63
2018-07-26T19:07:31.416Z,98758.73
2018-07-26T19:10:07.504Z,98766.34
2018-07-26T19:12:42.007Z,98780.00
2018-07-26T19:15:16.435Z,98770.54
2018-07-26T19:17:50.688Z,98780.50
2018-07-26T19:20:24.996Z,98784.78
2018-07-26T19:22:59.279Z,98792.08
2018-07-26T19:25:33.552Z,98793.27
2018-07-26T19:28:07.944Z,98796.73
2018-07-26T19:30:42.508Z,98799.70
2018-07-26T19:33:16.824Z,98809.29
2018-07-26T19:35:51.111Z,98807.61
2018-07-26T19:38:25.826Z,98807.61
2018-07-26T19:41:00.208Z,98808.95
2018-07-26T19:43:34.627Z,98816.22
2018-07-26T19:46:09.096Z,98804.44
2018-07-26T19:48:43.488Z,98804.94
2018-07-26T19:51:17.780Z,98814.90
2018-07-26T19:53:52.273Z,98812.03
2018-07-26T19:56:26.524Z,98823.53
2018-07-26T19:59:00.963Z,98815.69
2018-07-26T20:01:35.307Z,98815.60
2018-07-26T20:04:09.787Z,98821.09
2018-07-26T20:06:44.227Z,98819.95
2018-07-26T20:09:18.611Z,98827.27
2018-07-26T20:11:53.063Z,98829.30
2018-07-26T20:14:27.355Z,98828.41
2018-07-26T20:17:01.852Z,98826.70
2018-07-26T20:19:36.172Z,98826.31
2018-07-26T20:22:10.645Z,98827.67
2018-07-26T20:24:45.065Z,98827.48
2018-07-26T20:27:19.615Z,98827.37
2018-07-26T20:29:54.083Z,98824.05
2018-07-26T20:32:28.676Z,98821.56
2018-07-26T20:35:02.960Z,98816.66
2018-07-26T20:37:37.340Z,98816.32
2018-07-26T20:40:12.154Z,98822.75
2018-07-26T20:42:46.704Z,98823.16
2018-07-26T20:45:20.902Z,98828.01
2018-07-26T20:47:55.675Z,98828.80
2018-07-26T20:50:29.955Z,98830.43
2018-07-26T20:53:04.248Z,98826.21
2018-07-26T20:55:38.648Z,98832.80
2018-07-26T20:58:13.083Z,98837.08
2018-07-26T21:00:47.576Z,98831.22
2018-07-26T21:03:21.988Z,98839.61
2018-07-26T21:05:56.435Z,98836.89
2018-07-26T21:08:31.015Z,98840.34
2018-07-26T21:11:05.712Z,98839.31
2018-07-26T21:13:40.237Z,98845.86
2018-07-26T21:16:14.615Z,98846.25
2018-07-26T21:18:49.090Z,98850.78
2018-07-26T21:21:23.524Z,98851.99
2018-07-26T21:23:57.895Z,98856.81
2018-07-26T21:26:32.250Z,98857.84
2018-07-26T21:29:06.459Z,98853.47
2018-07-26T21:31:40.866Z,98854.10
2018-07-26T21:34:15.267Z,98857.09
2018-07-26T21:36:49.659Z,98855.84
2018-07-26T21:39:24.056Z,98859.72
2018-07-26T21:41:58.313Z,98861.61
2018-07-26T21:44:32.707Z,98861.16
2018-07-26T21:47:06.943Z,98859.17
2018-07-26T21:49:41.388Z,98864.19
2018-07-26T21:52:15.704Z,98868.13
2018-07-26T21:54:50.004Z,98871.20
2018-07-26T21:57:24.403Z,98869.81
2018-07-26T21:59:58.848Z,98869.62
2018-07-26T22:02:33.361Z,98868.64
2018-07-26T22:05:07.820Z,98867.41
2018-07-26T22:07:42.383Z,98869.81
2018-07-26T22:10:16.775Z,98874.59
2018-07-26T22:12:51.056Z,98875.19
2018-07-26T22:15:25.488Z,98869.38
2018-07-26T22:17:59.779Z,98874.11
2018-07-26T22:20:34.238Z,98873.09
2018-07-26T22:23:08.666Z,98875.58
2018-07-26T22:25:47.620Z,98875.84
2018-07-26T22:28:21.895Z,98876.75
2018-07-26T22:30:56.199Z,98877.19
2018-07-26T22:33:37.135Z,98880.20
2018-07-26T22:36:11.408Z,98878.02
2018-07-26T22:38:45.804Z,98877.33
2018-07-26T22:41:20.222Z,98883.91
2018-07-26T22:43:54.639Z,98883.88
2018-07-26T22:46:28.978Z,98874.96
2018-07-26T22:49:03.640Z,98880.16
2018-07-26T22:51:37.943Z,98878.20
2018-07-26T22:54:12.268Z,98879.78
2018-07-26T22:56:46.539Z,98880.03
2018-07-26T22:59:20.971Z,98879.11
2018-07-26T23:01:55.368Z,98873.58
2018-07-26T23:04:29.639Z,98873.73
2018-07-26T23:07:04.273Z,98881.67
2018-07-26T23:09:38.555Z,98878.42
2018-07-26T23:12:12.962Z,98874.56
2018-07-26T23:14:47.341Z,98875.73
2018-07-26T23:17:21.883Z,98881.48
2018-07-26T23:19:56.200Z,98880.39
2018-07-26T23:22:30.484Z,98874.38
2018-07-26T23:25:05.675Z,98878.10
2018-07-26T23:27:40.779Z,98871.56
2018-07-26T23:30:15.047Z,98873.53
2018-07-26T23:32:49.412Z,98869.77
2018-07-26T23:35:23.815Z,98870.20
2018-07-26T23:37:58.257Z,98871.97
2018-07-26T23:40:32.687Z,98868.45
2018-07-26T23:43:07.284Z,98869.91
2018-07-26T23:45:41.620Z,98867.15
2018-07-26T23:48:16.563Z,98872.46
2018-07-26T23:50:50.950Z,98870.39
2018-07-26T23:53:25.340Z,98864.77
2018-07-26T23:56:12.296Z,98867.80
2018-07-26T23:58:46.688Z,98871.02
